sensor_id;sensor_type;location;lat;lon;timestamp;P1;durP1;ratioP1;P2;durP2;ratioP2
17864;SDS011;9058;52.018;4.202;2023-04-06T00:01:30;31.15;;;19.40;;
17864;SDS011;9058;52.018;4.202;2023-04-06T00:03:57;24.15;;;17.10;;
17864;SDS011;9058;52.018;4.202;2023-04-06T00:06:23;26.40;;;18.38;;
17864;SDS011;9058;52.018;4.202;2023-04-06T00:08:50;24.90;;;16.23;;
17864;SDS011;9058;52.018;4.202;2023-04-06T00:11:16;26.08;;;17.02;;
17864;SDS011;9058;52.018;4.202;2023-04-06T00:13:43;24.48;;;17.05;;
17864;SDS011;9058;52.018;4.202;2023-04-06T00:16:09;22.10;;;15.55;;
17864;SDS011;9058;52.018;4.202;2023-04-06T00:18:37;24.45;;;15.98;;
17864;SDS011;9058;52.018;4.202;2023-04-06T00:21:04;19.52;;;15.13;;
17864;SDS011;9058;52.018;4.202;2023-04-06T00:23:30;23.83;;;16.02;;
17864;SDS011;9058;52.018;4.202;2023-04-06T00:25:57;28.23;;;16.25;;
17864;SDS011;9058;52.018;4.202;2023-04-06T00:28:25;23.80;;;16.65;;
17864;SDS011;9058;52.018;4.202;2023-04-06T00:30:51;24.08;;;16.40;;
17864;SDS011;9058;52.018;4.202;2023-04-06T00:33:20;22.92;;;15.45;;
17864;SDS011;9058;52.018;4.202;2023-04-06T00:35:47;22.25;;;15.65;;
17864;SDS011;9058;52.018;4.202;2023-04-06T00:38:15;20.83;;;15.25;;
17864;SDS011;9058;52.018;4.202;2023-04-06T00:40:42;19.90;;;14.02;;
17864;SDS011;9058;52.018;4.202;2023-04-06T00:43:09;21.60;;;14.57;;
17864;SDS011;9058;52.018;4.202;2023-04-06T00:45:37;22.50;;;14.05;;
17864;SDS011;9058;52.018;4.202;2023-04-06T00:48:04;18.63;;;13.38;;
17864;SDS011;9058;52.018;4.202;2023-04-06T00:50:31;21.17;;;14.13;;
17864;SDS011;9058;52.018;4.202;2023-04-06T00:53:00;16.23;;;13.30;;
17864;SDS011;9058;52.018;4.202;2023-04-06T00:55:26;18.00;;;12.50;;
17864;SDS011;9058;52.018;4.202;2023-04-06T00:57:54;19.95;;;12.57;;
17864;SDS011;9058;52.018;4.202;2023-04-06T01:00:20;19.98;;;13.70;;
17864;SDS011;9058;52.018;4.202;2023-04-06T01:02:46;19.67;;;12.45;;
17864;SDS011;9058;52.018;4.202;2023-04-06T01:05:13;16.70;;;12.27;;
17864;SDS011;9058;52.018;4.202;2023-04-06T01:07:40;17.95;;;12.63;;
17864;SDS011;9058;52.018;4.202;2023-04-06T01:10:09;17.88;;;12.35;;
17864;SDS011;9058;52.018;4.202;2023-04-06T01:12:37;17.13;;;12.15;;
17864;SDS011;9058;52.018;4.202;2023-04-06T01:15:04;15.25;;;11.27;;
17864;SDS011;9058;52.018;4.202;2023-04-06T01:17:30;18.30;;;11.93;;
17864;SDS011;9058;52.018;4.202;2023-04-06T01:19:57;15.65;;;12.52;;
17864;SDS011;9058;52.018;4.202;2023-04-06T01:22:25;19.15;;;11.90;;
17864;SDS011;9058;52.018;4.202;2023-04-06T01:24:51;17.80;;;12.70;;
17864;SDS011;9058;52.018;4.202;2023-04-06T01:27:17;15.32;;;11.48;;
17864;SDS011;9058;52.018;4.202;2023-04-06T01:29:43;17.73;;;12.20;;
17864;SDS011;9058;52.018;4.202;2023-04-06T01:32:10;16.42;;;12.60;;
17864;SDS011;9058;52.018;4.202;2023-04-06T01:34:36;16.40;;;12.05;;
17864;SDS011;9058;52.018;4.202;2023-04-06T01:37:02;21.70;;;11.93;;
17864;SDS011;9058;52.018;4.202;2023-04-06T01:39:30;16.30;;;12.27;;
17864;SDS011;9058;52.018;4.202;2023-04-06T01:41:57;16.98;;;12.35;;
17864;SDS011;9058;52.018;4.202;2023-04-06T01:44:23;19.10;;;11.77;;
17864;SDS011;9058;52.018;4.202;2023-04-06T01:46:50;16.83;;;11.75;;
17864;SDS011;9058;52.018;4.202;2023-04-06T01:49:16;18.05;;;11.98;;
17864;SDS011;9058;52.018;4.202;2023-04-06T01:51:42;17.35;;;11.98;;
17864;SDS011;9058;52.018;4.202;2023-04-06T01:54:09;16.63;;;12.70;;
17864;SDS011;9058;52.018;4.202;2023-04-06T01:56:37;16.35;;;11.82;;
17864;SDS011;9058;52.018;4.202;2023-04-06T01:59:03;15.98;;;11.52;;
17864;SDS011;9058;52.018;4.202;2023-04-06T02:01:29;16.30;;;12.20;;
17864;SDS011;9058;52.018;4.202;2023-04-06T02:03:56;19.17;;;12.52;;
17864;SDS011;9058;52.018;4.202;2023-04-06T02:06:22;17.73;;;12.68;;
17864;SDS011;9058;52.018;4.202;2023-04-06T02:08:49;19.00;;;13.43;;
17864;SDS011;9058;52.018;4.202;2023-04-06T02:11:16;15.88;;;11.57;;
17864;SDS011;9058;52.018;4.202;2023-04-06T02:13:46;17.88;;;12.65;;
17864;SDS011;9058;52.018;4.202;2023-04-06T02:16:12;19.65;;;12.35;;
17864;SDS011;9058;52.018;4.202;2023-04-06T02:18:40;21.77;;;13.13;;
17864;SDS011;9058;52.018;4.202;2023-04-06T02:21:07;18.38;;;13.10;;
17864;SDS011;9058;52.018;4.202;2023-04-06T02:23:33;17.13;;;12.80;;
17864;SDS011;9058;52.018;4.202;2023-04-06T02:25:59;19.83;;;13.32;;
17864;SDS011;9058;52.018;4.202;2023-04-06T02:28:26;16.50;;;12.25;;
17864;SDS011;9058;52.018;4.202;2023-04-06T02:30:53;17.48;;;12.02;;
17864;SDS011;9058;52.018;4.202;2023-04-06T02:33:20;17.92;;;13.20;;
17864;SDS011;9058;52.018;4.202;2023-04-06T02:35:46;20.35;;;12.88;;
17864;SDS011;9058;52.018;4.202;2023-04-06T02:38:12;18.38;;;13.20;;
17864;SDS011;9058;52.018;4.202;2023-04-06T02:40:39;22.08;;;13.38;;
17864;SDS011;9058;52.018;4.202;2023-04-06T02:43:05;18.13;;;13.43;;
17864;SDS011;9058;52.018;4.202;2023-04-06T02:45:32;17.60;;;13.13;;
17864;SDS011;9058;52.018;4.202;2023-04-06T02:48:00;20.42;;;13.73;;
17864;SDS011;9058;52.018;4.202;2023-04-06T02:50:26;22.52;;;13.75;;
17864;SDS011;9058;52.018;4.202;2023-04-06T02:52:53;19.63;;;13.07;;
17864;SDS011;9058;52.018;4.202;2023-04-06T02:55:19;18.92;;;13.50;;
17864;SDS011;9058;52.018;4.202;2023-04-06T02:57:45;19.35;;;14.95;;
17864;SDS011;9058;52.018;4.202;2023-04-06T03:00:12;18.30;;;13.40;;
17864;SDS011;9058;52.018;4.202;2023-04-06T03:02:38;20.55;;;14.57;;
17864;SDS011;9058;52.018;4.202;2023-04-06T03:05:08;19.42;;;13.23;;
17864;SDS011;9058;52.018;4.202;2023-04-06T03:07:34;21.08;;;14.32;;
17864;SDS011;9058;52.018;4.202;2023-04-06T03:10:00;20.80;;;15.38;;
17864;SDS011;9058;52.018;4.202;2023-04-06T03:12:27;19.17;;;14.25;;
17864;SDS011;9058;52.018;4.202;2023-04-06T03:14:53;19.30;;;14.27;;
17864;SDS011;9058;52.018;4.202;2023-04-06T03:17:21;18.20;;;15.23;;
17864;SDS011;9058;52.018;4.202;2023-04-06T03:19:47;18.55;;;13.95;;
17864;SDS011;9058;52.018;4.202;2023-04-06T03:22:15;23.13;;;14.73;;
17864;SDS011;9058;52.018;4.202;2023-04-06T03:24:41;19.27;;;14.60;;
17864;SDS011;9058;52.018;4.202;2023-04-06T03:27:07;21.88;;;15.13;;
17864;SDS011;9058;52.018;4.202;2023-04-06T03:29:34;23.77;;;15.18;;
17864;SDS011;9058;52.018;4.202;2023-04-06T03:32:00;22.55;;;14.75;;
17864;SDS011;9058;52.018;4.202;2023-04-06T03:34:27;20.00;;;14.63;;
17864;SDS011;9058;52.018;4.202;2023-04-06T03:36:53;23.75;;;15.23;;
17864;SDS011;9058;52.018;4.202;2023-04-06T03:39:22;21.90;;;15.82;;
17864;SDS011;9058;52.018;4.202;2023-04-06T03:41:48;22.75;;;15.55;;
17864;SDS011;9058;52.018;4.202;2023-04-06T03:44:14;21.60;;;15.10;;
17864;SDS011;9058;52.018;4.202;2023-04-06T03:46:41;22.65;;;15.80;;
17864;SDS011;9058;52.018;4.202;2023-04-06T03:49:08;22.67;;;16.70;;
17864;SDS011;9058;52.018;4.202;2023-04-06T03:51:34;24.83;;;15.98;;
17864;SDS011;9058;52.018;4.202;2023-04-06T03:54:00;23.65;;;15.48;;
17864;SDS011;9058;52.018;4.202;2023-04-06T03:56:29;24.35;;;17.15;;
17864;SDS011;9058;52.018;4.202;2023-04-06T03:58:55;24.77;;;16.77;;
17864;SDS011;9058;52.018;4.202;2023-04-06T04:01:22;22.95;;;15.23;;
17864;SDS011;9058;52.018;4.202;2023-04-06T04:03:48;31.02;;;17.42;;
17864;SDS011;9058;52.018;4.202;2023-04-06T04:06:16;27.30;;;17.10;;
17864;SDS011;9058;52.018;4.202;2023-04-06T04:08:42;27.27;;;18.42;;
17864;SDS011;9058;52.018;4.202;2023-04-06T04:11:09;28.10;;;17.85;;
17864;SDS011;9058;52.018;4.202;2023-04-06T04:13:36;28.10;;;19.63;;
17864;SDS011;9058;52.018;4.202;2023-04-06T04:16:03;24.88;;;18.60;;
17864;SDS011;9058;52.018;4.202;2023-04-06T04:18:29;25.13;;;18.30;;
17864;SDS011;9058;52.018;4.202;2023-04-06T04:20:56;27.20;;;19.48;;
17864;SDS011;9058;52.018;4.202;2023-04-06T04:23:22;29.20;;;18.92;;
17864;SDS011;9058;52.018;4.202;2023-04-06T04:25:48;28.00;;;19.63;;
17864;SDS011;9058;52.018;4.202;2023-04-06T04:28:16;28.60;;;20.45;;
17864;SDS011;9058;52.018;4.202;2023-04-06T04:30:43;25.20;;;19.45;;
17864;SDS011;9058;52.018;4.202;2023-04-06T04:33:10;30.33;;;22.38;;
17864;SDS011;9058;52.018;4.202;2023-04-06T04:35:36;29.27;;;20.73;;
17864;SDS011;9058;52.018;4.202;2023-04-06T04:38:03;29.08;;;21.85;;
17864;SDS011;9058;52.018;4.202;2023-04-06T04:40:30;28.92;;;21.63;;
17864;SDS011;9058;52.018;4.202;2023-04-06T04:42:56;31.58;;;22.65;;
17864;SDS011;9058;52.018;4.202;2023-04-06T04:45:23;32.40;;;23.90;;
17864;SDS011;9058;52.018;4.202;2023-04-06T04:47:50;33.47;;;24.60;;
17864;SDS011;9058;52.018;4.202;2023-04-06T04:50:17;36.10;;;24.05;;
17864;SDS011;9058;52.018;4.202;2023-04-06T04:52:43;33.80;;;25.05;;
17864;SDS011;9058;52.018;4.202;2023-04-06T04:55:10;34.63;;;24.67;;
17864;SDS011;9058;52.018;4.202;2023-04-06T04:57:36;36.00;;;26.05;;
17864;SDS011;9058;52.018;4.202;2023-04-06T05:00:03;35.40;;;26.13;;
17864;SDS011;9058;52.018;4.202;2023-04-06T05:02:29;35.17;;;28.08;;
17864;SDS011;9058;52.018;4.202;2023-04-06T05:04:59;37.28;;;28.52;;
17864;SDS011;9058;52.018;4.202;2023-04-06T05:07:25;38.10;;;27.08;;
17864;SDS011;9058;52.018;4.202;2023-04-06T05:09:51;37.95;;;27.58;;
17864;SDS011;9058;52.018;4.202;2023-04-06T05:12:19;38.78;;;27.80;;
17864;SDS011;9058;52.018;4.202;2023-04-06T05:14:45;39.45;;;29.63;;
17864;SDS011;9058;52.018;4.202;2023-04-06T05:17:13;42.72;;;28.65;;
17864;SDS011;9058;52.018;4.202;2023-04-06T05:19:39;38.70;;;29.42;;
17864;SDS011;9058;52.018;4.202;2023-04-06T05:22:07;42.45;;;30.85;;
17864;SDS011;9058;52.018;4.202;2023-04-06T05:24:34;40.83;;;30.15;;
17864;SDS011;9058;52.018;4.202;2023-04-06T05:27:01;45.88;;;32.53;;
17864;SDS011;9058;52.018;4.202;2023-04-06T05:29:27;47.85;;;33.65;;
17864;SDS011;9058;52.018;4.202;2023-04-06T05:31:55;49.42;;;33.53;;
17864;SDS011;9058;52.018;4.202;2023-04-06T05:34:21;48.20;;;33.78;;
17864;SDS011;9058;52.018;4.202;2023-04-06T05:36:48;50.05;;;35.83;;
17864;SDS011;9058;52.018;4.202;2023-04-06T05:39:16;48.22;;;33.85;;
17864;SDS011;9058;52.018;4.202;2023-04-06T05:41:43;49.85;;;34.72;;
17864;SDS011;9058;52.018;4.202;2023-04-06T05:44:10;53.28;;;36.92;;
17864;SDS011;9058;52.018;4.202;2023-04-06T05:46:36;53.53;;;36.17;;
17864;SDS011;9058;52.018;4.202;2023-04-06T05:49:03;53.75;;;38.90;;
17864;SDS011;9058;52.018;4.202;2023-04-06T05:51:30;53.50;;;39.70;;
17864;SDS011;9058;52.018;4.202;2023-04-06T05:53:56;53.88;;;38.60;;
17864;SDS011;9058;52.018;4.202;2023-04-06T05:56:25;56.78;;;40.20;;
17864;SDS011;9058;52.018;4.202;2023-04-06T05:58:55;55.15;;;40.47;;
17864;SDS011;9058;52.018;4.202;2023-04-06T06:01:21;60.85;;;40.67;;
17864;SDS011;9058;52.018;4.202;2023-04-06T06:03:48;56.35;;;38.67;;
17864;SDS011;9058;52.018;4.202;2023-04-06T06:06:14;57.20;;;38.97;;
17864;SDS011;9058;52.018;4.202;2023-04-06T06:08:40;58.45;;;39.45;;
17864;SDS011;9058;52.018;4.202;2023-04-06T06:11:06;56.20;;;38.95;;
17864;SDS011;9058;52.018;4.202;2023-04-06T06:13:34;54.25;;;38.60;;
17864;SDS011;9058;52.018;4.202;2023-04-06T06:16:01;52.80;;;38.25;;
17864;SDS011;9058;52.018;4.202;2023-04-06T06:18:30;54.88;;;36.15;;
17864;SDS011;9058;52.018;4.202;2023-04-06T06:20:56;52.92;;;38.80;;
17864;SDS011;9058;52.018;4.202;2023-04-06T06:23:23;51.33;;;35.53;;
17864;SDS011;9058;52.018;4.202;2023-04-06T06:25:49;49.47;;;36.35;;
17864;SDS011;9058;52.018;4.202;2023-04-06T06:28:15;51.25;;;36.17;;
17864;SDS011;9058;52.018;4.202;2023-04-06T06:30:44;49.83;;;34.25;;
17864;SDS011;9058;52.018;4.202;2023-04-06T06:33:10;53.85;;;35.03;;
17864;SDS011;9058;52.018;4.202;2023-04-06T06:35:37;47.78;;;33.83;;
17864;SDS011;9058;52.018;4.202;2023-04-06T06:38:03;48.80;;;33.97;;
17864;SDS011;9058;52.018;4.202;2023-04-06T06:40:30;48.20;;;33.72;;
17864;SDS011;9058;52.018;4.202;2023-04-06T06:42:56;47.38;;;35.03;;
17864;SDS011;9058;52.018;4.202;2023-04-06T06:45:23;42.58;;;30.98;;
17864;SDS011;9058;52.018;4.202;2023-04-06T06:47:51;41.72;;;31.58;;
17864;SDS011;9058;52.018;4.202;2023-04-06T06:50:18;41.28;;;30.60;;
17864;SDS011;9058;52.018;4.202;2023-04-06T06:52:44;41.92;;;32.10;;
17864;SDS011;9058;52.018;4.202;2023-04-06T06:55:11;36.38;;;28.42;;
17864;SDS011;9058;52.018;4.202;2023-04-06T06:57:37;42.42;;;28.35;;
17864;SDS011;9058;52.018;4.202;2023-04-06T07:00:04;31.73;;;25.88;;
17864;SDS011;9058;52.018;4.202;2023-04-06T07:02:33;30.55;;;24.35;;
17864;SDS011;9058;52.018;4.202;2023-04-06T07:05:02;29.50;;;23.33;;
17864;SDS011;9058;52.018;4.202;2023-04-06T07:07:28;33.97;;;22.85;;
17864;SDS011;9058;52.018;4.202;2023-04-06T07:09:55;29.10;;;20.98;;
17864;SDS011;9058;52.018;4.202;2023-04-06T07:12:21;25.80;;;20.95;;
17864;SDS011;9058;52.018;4.202;2023-04-06T07:14:47;27.63;;;21.30;;
17864;SDS011;9058;52.018;4.202;2023-04-06T07:17:14;24.52;;;19.88;;
17864;SDS011;9058;52.018;4.202;2023-04-06T07:19:40;27.15;;;20.35;;
17864;SDS011;9058;52.018;4.202;2023-04-06T07:22:09;24.45;;;18.23;;
17864;SDS011;9058;52.018;4.202;2023-04-06T07:24:36;24.05;;;19.02;;
17864;SDS011;9058;52.018;4.202;2023-04-06T07:27:02;23.83;;;18.52;;
17864;SDS011;9058;52.018;4.202;2023-04-06T07:29:28;27.08;;;19.27;;
17864;SDS011;9058;52.018;4.202;2023-04-06T07:31:55;22.52;;;18.30;;
17864;SDS011;9058;52.018;4.202;2023-04-06T07:34:21;23.52;;;18.63;;
17864;SDS011;9058;52.018;4.202;2023-04-06T07:36:48;24.75;;;19.42;;
17864;SDS011;9058;52.018;4.202;2023-04-06T07:39:16;24.27;;;17.80;;
17864;SDS011;9058;52.018;4.202;2023-04-06T07:41:42;24.33;;;18.80;;
17864;SDS011;9058;52.018;4.202;2023-04-06T07:44:08;23.08;;;18.67;;
17864;SDS011;9058;52.018;4.202;2023-04-06T07:46:35;23.80;;;18.35;;
17864;SDS011;9058;52.018;4.202;2023-04-06T07:49:01;23.63;;;17.50;;
17864;SDS011;9058;52.018;4.202;2023-04-06T07:51:29;24.77;;;18.70;;
17864;SDS011;9058;52.018;4.202;2023-04-06T07:53:56;21.63;;;15.20;;
17864;SDS011;9058;52.018;4.202;2023-04-06T07:56:23;21.02;;;15.32;;
17864;SDS011;9058;52.018;4.202;2023-04-06T07:58:50;22.85;;;16.55;;
17864;SDS011;9058;52.018;4.202;2023-04-06T08:01:16;20.40;;;16.45;;
17864;SDS011;9058;52.018;4.202;2023-04-06T08:03:42;19.08;;;15.63;;
17864;SDS011;9058;52.018;4.202;2023-04-06T08:06:09;18.63;;;15.88;;
17864;SDS011;9058;52.018;4.202;2023-04-06T08:08:36;18.27;;;14.60;;
17864;SDS011;9058;52.018;4.202;2023-04-06T08:11:02;17.08;;;12.80;;
17864;SDS011;9058;52.018;4.202;2023-04-06T08:13:30;17.35;;;12.85;;
17864;SDS011;9058;52.018;4.202;2023-04-06T08:15:58;16.17;;;12.65;;
17864;SDS011;9058;52.018;4.202;2023-04-06T08:18:25;14.77;;;9.13;;
17864;SDS011;9058;52.018;4.202;2023-04-06T08:20:52;13.18;;;9.65;;
17864;SDS011;9058;52.018;4.202;2023-04-06T08:23:18;14.43;;;9.82;;
17864;SDS011;9058;52.018;4.202;2023-04-06T08:25:45;12.10;;;7.95;;
17864;SDS011;9058;52.018;4.202;2023-04-06T08:28:11;15.02;;;9.05;;
17864;SDS011;9058;52.018;4.202;2023-04-06T08:30:40;16.80;;;8.98;;
17864;SDS011;9058;52.018;4.202;2023-04-06T08:33:07;17.05;;;9.80;;
17864;SDS011;9058;52.018;4.202;2023-04-06T08:35:33;16.88;;;10.05;;
17864;SDS011;9058;52.018;4.202;2023-04-06T08:37:59;21.08;;;10.30;;
17864;SDS011;9058;52.018;4.202;2023-04-06T08:40:26;18.50;;;10.05;;
17864;SDS011;9058;52.018;4.202;2023-04-06T08:42:54;14.00;;;8.45;;
17864;SDS011;9058;52.018;4.202;2023-04-06T08:45:21;13.98;;;9.73;;
17864;SDS011;9058;52.018;4.202;2023-04-06T08:47:49;14.27;;;8.80;;
17864;SDS011;9058;52.018;4.202;2023-04-06T08:50:16;10.50;;;7.82;;
17864;SDS011;9058;52.018;4.202;2023-04-06T08:52:43;12.40;;;8.48;;
17864;SDS011;9058;52.018;4.202;2023-04-06T08:55:09;11.10;;;7.63;;
17864;SDS011;9058;52.018;4.202;2023-04-06T08:57:36;13.57;;;8.35;;
17864;SDS011;9058;52.018;4.202;2023-04-06T09:00:03;13.30;;;8.07;;
17864;SDS011;9058;52.018;4.202;2023-04-06T09:02:30;9.82;;;8.07;;
17864;SDS011;9058;52.018;4.202;2023-04-06T09:04:59;10.77;;;8.68;;
17864;SDS011;9058;52.018;4.202;2023-04-06T09:07:26;12.10;;;7.90;;
17864;SDS011;9058;52.018;4.202;2023-04-06T09:09:54;10.20;;;9.02;;
17864;SDS011;9058;52.018;4.202;2023-04-06T09:12:22;12.27;;;9.55;;
17864;SDS011;9058;52.018;4.202;2023-04-06T09:14:49;12.40;;;8.93;;
17864;SDS011;9058;52.018;4.202;2023-04-06T09:17:19;12.40;;;9.07;;
17864;SDS011;9058;52.018;4.202;2023-04-06T09:19:46;13.00;;;8.75;;
17864;SDS011;9058;52.018;4.202;2023-04-06T09:22:14;12.05;;;9.70;;
17864;SDS011;9058;52.018;4.202;2023-04-06T09:24:41;10.93;;;9.48;;
17864;SDS011;9058;52.018;4.202;2023-04-06T09:27:09;13.07;;;8.95;;
17864;SDS011;9058;52.018;4.202;2023-04-06T09:29:35;10.82;;;9.35;;
17864;SDS011;9058;52.018;4.202;2023-04-06T09:32:02;11.05;;;9.00;;
17864;SDS011;9058;52.018;4.202;2023-04-06T09:34:29;13.65;;;10.52;;
17864;SDS011;9058;52.018;4.202;2023-04-06T09:36:56;12.30;;;9.23;;
17864;SDS011;9058;52.018;4.202;2023-04-06T09:39:25;14.63;;;10.68;;
17864;SDS011;9058;52.018;4.202;2023-04-06T09:41:51;14.30;;;10.15;;
17864;SDS011;9058;52.018;4.202;2023-04-06T09:44:19;15.30;;;10.88;;
17864;SDS011;9058;52.018;4.202;2023-04-06T09:46:46;13.07;;;9.43;;
17864;SDS011;9058;52.018;4.202;2023-04-06T09:49:13;12.52;;;9.70;;
17864;SDS011;9058;52.018;4.202;2023-04-06T09:51:40;16.10;;;10.75;;
17864;SDS011;9058;52.018;4.202;2023-04-06T09:54:07;13.82;;;10.18;;
17864;SDS011;9058;52.018;4.202;2023-04-06T09:56:37;17.15;;;9.70;;
17864;SDS011;9058;52.018;4.202;2023-04-06T09:59:05;11.85;;;9.73;;
17864;SDS011;9058;52.018;4.202;2023-04-06T10:01:34;14.52;;;9.25;;
17864;SDS011;9058;52.018;4.202;2023-04-06T10:04:05;13.50;;;9.07;;
17864;SDS011;9058;52.018;4.202;2023-04-06T10:06:33;11.82;;;10.55;;
17864;SDS011;9058;52.018;4.202;2023-04-06T10:09:02;10.90;;;8.93;;
17864;SDS011;9058;52.018;4.202;2023-04-06T10:11:28;12.82;;;9.77;;
17864;SDS011;9058;52.018;4.202;2023-04-06T10:13:57;12.50;;;10.25;;
17864;SDS011;9058;52.018;4.202;2023-04-06T10:16:23;13.00;;;10.20;;
17864;SDS011;9058;52.018;4.202;2023-04-06T10:18:52;13.38;;;10.82;;
17864;SDS011;9058;52.018;4.202;2023-04-06T10:21:22;12.70;;;10.40;;
17864;SDS011;9058;52.018;4.202;2023-04-06T10:23:51;14.20;;;11.43;;
17864;SDS011;9058;52.018;4.202;2023-04-06T10:26:20;16.67;;;11.80;;
17864;SDS011;9058;52.018;4.202;2023-04-06T10:28:47;14.25;;;11.93;;
17864;SDS011;9058;52.018;4.202;2023-04-06T10:31:15;14.63;;;10.80;;
17864;SDS011;9058;52.018;4.202;2023-04-06T10:33:53;11.90;;;9.73;;
17864;SDS011;9058;52.018;4.202;2023-04-06T10:36:21;14.73;;;10.80;;
17864;SDS011;9058;52.018;4.202;2023-04-06T10:38:53;15.95;;;13.05;;
17864;SDS011;9058;52.018;4.202;2023-04-06T10:41:19;15.95;;;13.10;;
17864;SDS011;9058;52.018;4.202;2023-04-06T10:43:46;16.55;;;11.00;;
17864;SDS011;9058;52.018;4.202;2023-04-06T10:46:25;15.57;;;12.50;;
17864;SDS011;9058;52.018;4.202;2023-04-06T10:48:52;15.82;;;12.63;;
17864;SDS011;9058;52.018;4.202;2023-04-06T10:51:18;13.30;;;11.90;;
17864;SDS011;9058;52.018;4.202;2023-04-06T10:53:47;15.55;;;12.75;;
17864;SDS011;9058;52.018;4.202;2023-04-06T10:56:14;14.57;;;12.07;;
17864;SDS011;9058;52.018;4.202;2023-04-06T10:58:43;15.38;;;12.55;;
17864;SDS011;9058;52.018;4.202;2023-04-06T11:01:10;13.40;;;12.02;;
17864;SDS011;9058;52.018;4.202;2023-04-06T11:03:43;14.95;;;12.20;;
17864;SDS011;9058;52.018;4.202;2023-04-06T11:06:10;13.93;;;11.68;;
17864;SDS011;9058;52.018;4.202;2023-04-06T11:08:37;15.30;;;13.25;;
17864;SDS011;9058;52.018;4.202;2023-04-06T11:11:05;13.57;;;11.27;;
17864;SDS011;9058;52.018;4.202;2023-04-06T11:13:36;15.82;;;11.13;;
17864;SDS011;9058;52.018;4.202;2023-04-06T11:16:03;13.52;;;11.63;;
17864;SDS011;9058;52.018;4.202;2023-04-06T11:18:30;15.40;;;12.80;;
17864;SDS011;9058;52.018;4.202;2023-04-06T11:20:59;12.10;;;10.32;;
17864;SDS011;9058;52.018;4.202;2023-04-06T11:23:25;13.35;;;11.57;;
17864;SDS011;9058;52.018;4.202;2023-04-06T11:25:52;12.25;;;10.88;;
17864;SDS011;9058;52.018;4.202;2023-04-06T11:28:19;13.20;;;10.77;;
17864;SDS011;9058;52.018;4.202;2023-04-06T11:30:45;12.70;;;11.38;;
17864;SDS011;9058;52.018;4.202;2023-04-06T11:33:19;13.90;;;10.88;;
17864;SDS011;9058;52.018;4.202;2023-04-06T11:35:47;12.85;;;11.27;;
17864;SDS011;9058;52.018;4.202;2023-04-06T11:38:16;12.63;;;11.15;;
17864;SDS011;9058;52.018;4.202;2023-04-06T11:40:43;14.80;;;11.85;;
17864;SDS011;9058;52.018;4.202;2023-04-06T11:43:10;17.20;;;12.35;;
17864;SDS011;9058;52.018;4.202;2023-04-06T11:45:39;15.68;;;11.23;;
17864;SDS011;9058;52.018;4.202;2023-04-06T11:48:06;14.30;;;12.30;;
17864;SDS011;9058;52.018;4.202;2023-04-06T11:50:32;16.42;;;12.50;;
17864;SDS011;9058;52.018;4.202;2023-04-06T11:53:00;15.15;;;12.45;;
17864;SDS011;9058;52.018;4.202;2023-04-06T11:55:28;16.92;;;12.95;;
17864;SDS011;9058;52.018;4.202;2023-04-06T11:57:54;16.23;;;12.25;;
17864;SDS011;9058;52.018;4.202;2023-04-06T12:00:21;15.82;;;12.02;;
17864;SDS011;9058;52.018;4.202;2023-04-06T12:02:47;15.02;;;12.00;;
17864;SDS011;9058;52.018;4.202;2023-04-06T12:05:14;13.27;;;11.32;;
17864;SDS011;9058;52.018;4.202;2023-04-06T12:07:41;13.07;;;11.02;;
17864;SDS011;9058;52.018;4.202;2023-04-06T12:10:08;12.60;;;11.25;;
17864;SDS011;9058;52.018;4.202;2023-04-06T12:12:37;12.13;;;10.35;;
17864;SDS011;9058;52.018;4.202;2023-04-06T12:15:03;11.50;;;10.30;;
17864;SDS011;9058;52.018;4.202;2023-04-06T12:17:30;16.77;;;12.68;;
17864;SDS011;9058;52.018;4.202;2023-04-06T12:19:56;14.13;;;12.23;;
17864;SDS011;9058;52.018;4.202;2023-04-06T12:22:23;14.55;;;11.05;;
17864;SDS011;9058;52.018;4.202;2023-04-06T12:24:49;14.80;;;11.68;;
17864;SDS011;9058;52.018;4.202;2023-04-06T12:27:16;13.98;;;12.57;;
17864;SDS011;9058;52.018;4.202;2023-04-06T12:29:44;10.60;;;9.20;;
17864;SDS011;9058;52.018;4.202;2023-04-06T12:32:11;11.38;;;10.10;;
17864;SDS011;9058;52.018;4.202;2023-04-06T12:34:38;14.23;;;11.80;;
17864;SDS011;9058;52.018;4.202;2023-04-06T12:37:05;14.63;;;11.82;;
17864;SDS011;9058;52.018;4.202;2023-04-06T12:39:32;12.77;;;10.15;;
17864;SDS011;9058;52.018;4.202;2023-04-06T12:41:59;13.07;;;10.77;;
17864;SDS011;9058;52.018;4.202;2023-04-06T12:44:26;14.63;;;11.95;;
17864;SDS011;9058;52.018;4.202;2023-04-06T12:46:55;14.25;;;12.02;;
17864;SDS011;9058;52.018;4.202;2023-04-06T12:49:21;13.27;;;9.77;;
17864;SDS011;9058;52.018;4.202;2023-04-06T12:51:48;13.85;;;12.35;;
17864;SDS011;9058;52.018;4.202;2023-04-06T12:54:15;11.27;;;10.15;;
17864;SDS011;9058;52.018;4.202;2023-04-06T12:56:41;14.00;;;10.60;;
17864;SDS011;9058;52.018;4.202;2023-04-06T12:59:07;13.38;;;11.68;;
17864;SDS011;9058;52.018;4.202;2023-04-06T13:01:34;12.35;;;10.57;;
17864;SDS011;9058;52.018;4.202;2023-04-06T13:04:02;12.63;;;11.32;;
17864;SDS011;9058;52.018;4.202;2023-04-06T13:06:29;12.10;;;10.82;;
17864;SDS011;9058;52.018;4.202;2023-04-06T13:08:55;13.52;;;10.25;;
17864;SDS011;9058;52.018;4.202;2023-04-06T13:11:22;15.02;;;12.07;;
17864;SDS011;9058;52.018;4.202;2023-04-06T13:13:49;13.35;;;11.95;;
17864;SDS011;9058;52.018;4.202;2023-04-06T13:16:16;15.02;;;12.45;;
17864;SDS011;9058;52.018;4.202;2023-04-06T13:18:42;14.13;;;12.77;;
17864;SDS011;9058;52.018;4.202;2023-04-06T13:21:12;16.27;;;13.00;;
17864;SDS011;9058;52.018;4.202;2023-04-06T13:23:39;14.70;;;12.75;;
17864;SDS011;9058;52.018;4.202;2023-04-06T13:26:06;15.23;;;13.13;;
17864;SDS011;9058;52.018;4.202;2023-04-06T13:28:33;12.48;;;11.05;;
17864;SDS011;9058;52.018;4.202;2023-04-06T13:31:00;14.82;;;13.32;;
17864;SDS011;9058;52.018;4.202;2023-04-06T13:33:27;16.85;;;13.77;;
17864;SDS011;9058;52.018;4.202;2023-04-06T13:35:53;17.15;;;13.57;;
17864;SDS011;9058;52.018;4.202;2023-04-06T13:38:21;16.17;;;13.73;;
17864;SDS011;9058;52.018;4.202;2023-04-06T13:40:49;15.40;;;13.82;;
17864;SDS011;9058;52.018;4.202;2023-04-06T13:43:16;15.38;;;13.23;;
17864;SDS011;9058;52.018;4.202;2023-04-06T13:45:48;16.30;;;12.82;;
17864;SDS011;9058;52.018;4.202;2023-04-06T13:48:15;17.20;;;13.65;;
17864;SDS011;9058;52.018;4.202;2023-04-06T13:50:41;16.45;;;12.77;;
17864;SDS011;9058;52.018;4.202;2023-04-06T13:53:07;16.35;;;13.40;;
17864;SDS011;9058;52.018;4.202;2023-04-06T13:55:35;14.70;;;13.10;;
17864;SDS011;9058;52.018;4.202;2023-04-06T13:58:02;14.85;;;13.02;;
17864;SDS011;9058;52.018;4.202;2023-04-06T14:00:28;16.58;;;14.35;;
17864;SDS011;9058;52.018;4.202;2023-04-06T14:02:55;16.40;;;13.52;;
17864;SDS011;9058;52.018;4.202;2023-04-06T14:05:21;17.42;;;14.48;;
17864;SDS011;9058;52.018;4.202;2023-04-06T14:07:48;18.88;;;15.23;;
17864;SDS011;9058;52.018;4.202;2023-04-06T14:10:15;18.85;;;15.80;;
17864;SDS011;9058;52.018;4.202;2023-04-06T14:12:44;19.33;;;16.05;;
17864;SDS011;9058;52.018;4.202;2023-04-06T14:15:11;20.17;;;15.65;;
17864;SDS011;9058;52.018;4.202;2023-04-06T14:17:37;16.88;;;15.05;;
17864;SDS011;9058;52.018;4.202;2023-04-06T14:20:04;17.02;;;15.15;;
17864;SDS011;9058;52.018;4.202;2023-04-06T14:22:31;17.40;;;14.23;;
17864;SDS011;9058;52.018;4.202;2023-04-06T14:24:58;16.42;;;14.73;;
17864;SDS011;9058;52.018;4.202;2023-04-06T14:27:24;18.42;;;14.93;;
17864;SDS011;9058;52.018;4.202;2023-04-06T14:29:52;19.67;;;17.20;;
17864;SDS011;9058;52.018;4.202;2023-04-06T14:32:20;17.13;;;14.48;;
17864;SDS011;9058;52.018;4.202;2023-04-06T14:34:46;19.38;;;15.68;;